createdAt,value
2019-02-27T00:00:04.448Z,3.76
2019-02-27T00:01:02.801Z,3.71
2019-02-27T00:02:03.064Z,3.77
2019-02-27T00:03:03.324Z,3.74
2019-02-27T00:04:03.563Z,3.81
2019-02-27T00:05:05.901Z,3.67
2019-02-27T00:06:04.275Z,3.66
2019-02-27T00:07:04.391Z,3.71
2019-02-27T00:08:04.653Z,3.73
2019-02-27T00:09:04.913Z,3.71
2019-02-27T00:10:06.186Z,3.70
2019-02-27T00:11:05.459Z,3.73
2019-02-27T00:12:05.708Z,3.73
2019-02-27T00:13:05.979Z,3.73
2019-02-27T00:14:06.345Z,3.76
2019-02-27T00:15:06.495Z,3.64
2019-02-27T00:16:10.795Z,3.64
2019-02-27T00:17:08.225Z,3.68
2019-02-27T00:18:07.330Z,3.63
2019-02-27T00:19:07.523Z,3.64
2019-02-27T00:20:07.805Z,3.52
2019-02-27T00:21:10.489Z,3.55
2019-02-27T00:22:08.384Z,3.52
2019-02-27T00:23:08.583Z,3.50
2019-02-27T00:24:08.832Z,3.49
2019-02-27T00:25:09.078Z,3.56
2019-02-27T00:26:09.562Z,3.37
2019-02-27T00:27:09.614Z,3.50
2019-02-27T00:28:09.896Z,3.55
2019-02-27T00:29:10.139Z,3.43
2019-02-27T00:30:10.442Z,3.53
2019-02-27T00:31:11.435Z,3.52
2019-02-27T00:32:10.907Z,3.50
2019-02-27T00:33:11.185Z,3.45
2019-02-27T00:34:11.426Z,3.43
2019-02-27T00:35:11.691Z,3.37
2019-02-27T00:36:12.404Z,3.36
2019-02-27T00:37:12.204Z,3.37
2019-02-27T00:38:12.522Z,3.30
2019-02-27T00:39:12.781Z,3.37
2019-02-27T00:40:12.996Z,3.33
2019-02-27T00:41:13.283Z,3.29
2019-02-27T00:42:13.501Z,3.24
2019-02-27T00:43:13.797Z,3.33
2019-02-27T00:44:14.039Z,3.41
2019-02-27T00:45:14.301Z,3.33
2019-02-27T00:46:14.606Z,3.29
2019-02-27T00:47:17.007Z,3.34
2019-02-27T00:48:15.128Z,3.33
2019-02-27T00:49:15.371Z,3.21
2019-02-27T00:50:15.633Z,3.31
2019-02-27T00:51:15.929Z,3.34
2019-02-27T00:52:18.079Z,3.24
2019-02-27T00:53:16.418Z,3.29
2019-02-27T00:54:16.682Z,3.31
2019-02-27T00:55:17.058Z,3.34
2019-02-27T00:56:17.225Z,3.34
2019-02-27T00:57:20.547Z,3.29
2019-02-27T00:58:17.717Z,3.22
2019-02-27T00:59:17.968Z,3.26
2019-02-27T01:00:18.241Z,3.33
2019-02-27T01:01:18.535Z,3.26
2019-02-27T01:02:19.983Z,3.18
2019-02-27T01:03:19.042Z,3.26
2019-02-27T01:04:19.247Z,3.18
2019-02-27T01:05:19.533Z,3.22
2019-02-27T01:06:19.827Z,3.15
2019-02-27T01:07:20.708Z,3.18
2019-02-27T01:08:20.322Z,3.08
2019-02-27T01:09:20.580Z,3.08
2019-02-27T01:10:20.817Z,3.09
2019-02-27T01:11:21.160Z,3.08
2019-02-27T01:12:22.907Z,3.03
2019-02-27T01:13:21.612Z,3.09
2019-02-27T01:14:21.887Z,3.12
2019-02-27T01:15:22.133Z,3.16
2019-02-27T01:16:22.444Z,3.19
2019-02-27T01:17:23.878Z,3.33
2019-02-27T01:18:22.947Z,3.34
2019-02-27T01:19:23.263Z,3.19
2019-02-27T01:20:23.528Z,3.21
2019-02-27T01:21:23.771Z,3.19
2019-02-27T01:22:24.011Z,3.16
2019-02-27T01:23:24.271Z,3.13
2019-02-27T01:24:24.551Z,3.16
2019-02-27T01:25:24.803Z,3.13
2019-02-27T01:26:25.098Z,3.05
2019-02-27T01:27:25.303Z,3.01
2019-02-27T01:28:25.693Z,3.00
2019-02-27T01:29:25.855Z,2.95
2019-02-27T01:30:26.095Z,3.03
2019-02-27T01:31:26.369Z,2.98
2019-02-27T01:32:28.864Z,2.88
2019-02-27T01:33:26.888Z,2.88
2019-02-27T01:34:27.166Z,2.90
2019-02-27T01:35:27.414Z,2.91
2019-02-27T01:36:27.773Z,2.82
2019-02-27T01:37:31.298Z,2.80
2019-02-27T01:38:28.182Z,2.75
2019-02-27T01:39:28.463Z,2.72
2019-02-27T01:40:28.710Z,2.69
2019-02-27T01:41:28.985Z,2.59
2019-02-27T01:42:32.184Z,2.64
2019-02-27T01:43:29.475Z,2.68
2019-02-27T01:44:29.780Z,2.68
2019-02-27T01:45:29.996Z,2.57
2019-02-27T01:46:30.282Z,2.72
2019-02-27T01:47:30.543Z,2.69
2019-02-27T01:48:30.786Z,2.75
2019-02-27T01:49:31.058Z,2.87
2019-02-27T01:50:31.307Z,2.83
2019-02-27T01:51:31.597Z,2.88
2019-02-27T01:52:33.940Z,2.87
2019-02-27T01:53:32.107Z,2.85
2019-02-27T01:54:32.391Z,2.80
2019-02-27T01:55:32.622Z,2.87
2019-02-27T01:56:32.924Z,2.87
2019-02-27T01:57:34.096Z,2.82
2019-02-27T01:58:33.419Z,2.76
2019-02-27T01:59:33.708Z,2.90
2019-02-27T02:00:33.966Z,2.73
2019-02-27T02:01:34.317Z,2.83
2019-02-27T02:02:34.882Z,2.76
2019-02-27T02:03:34.723Z,2.75
2019-02-27T02:04:35.003Z,2.83
2019-02-27T02:05:35.248Z,2.76
2019-02-27T02:06:35.528Z,2.80
2019-02-27T02:07:39.871Z,2.79
2019-02-27T02:08:36.046Z,2.83
2019-02-27T02:09:36.473Z,2.77
2019-02-27T02:10:36.577Z,2.85
2019-02-27T02:11:36.837Z,2.80
2019-02-27T02:12:39.086Z,2.79
2019-02-27T02:13:37.387Z,2.85
2019-02-27T02:14:37.667Z,2.85
2019-02-27T02:15:37.910Z,2.77
2019-02-27T02:16:38.179Z,2.73
2019-02-27T02:17:40.977Z,2.69
2019-02-27T02:18:38.698Z,2.70
2019-02-27T02:19:38.982Z,2.70
2019-02-27T02:20:39.222Z,2.58
2019-02-27T02:21:39.497Z,2.61
2019-02-27T02:22:41.280Z,2.58
2019-02-27T02:23:40.028Z,2.61
2019-02-27T02:24:40.329Z,2.52
2019-02-27T02:25:40.623Z,2.61
2019-02-27T02:26:40.820Z,2.55
2019-02-27T02:27:41.571Z,2.54
2019-02-27T02:28:41.323Z,2.54
2019-02-27T02:29:41.698Z,2.61
2019-02-27T02:30:41.876Z,2.52
2019-02-27T02:31:42.586Z,2.54
2019-02-27T02:32:42.424Z,2.51
2019-02-27T02:33:42.690Z,2.47
2019-02-27T02:34:42.961Z,2.52
2019-02-27T02:35:43.189Z,2.52
2019-02-27T02:36:43.458Z,2.50
2019-02-27T02:37:43.730Z,2.58
2019-02-27T02:38:43.972Z,2.51
2019-02-27T02:39:44.254Z,2.51
2019-02-27T02:40:44.479Z,2.50
2019-02-27T02:41:47.078Z,2.44
2019-02-27T02:42:45.147Z,2.43
2019-02-27T02:43:45.275Z,2.43
2019-02-27T02:44:45.543Z,2.33
2019-02-27T02:45:45.802Z,2.30
2019-02-27T02:46:46.335Z,2.23
2019-02-27T02:47:46.356Z,2.22
2019-02-27T02:48:46.598Z,2.25
2019-02-27T02:49:46.874Z,2.18
2019-02-27T02:50:47.227Z,2.16
2019-02-27T02:51:47.417Z,2.18
2019-02-27T02:52:47.652Z,2.21
2019-02-27T02:53:48.800Z,2.15
2019-02-27T02:54:48.169Z,2.26
2019-02-27T02:55:49.253Z,2.14
2019-02-27T02:56:48.716Z,2.15
2019-02-27T02:57:48.960Z,2.18
2019-02-27T02:58:49.273Z,2.16
2019-02-27T02:59:49.478Z,2.14
2019-02-27T03:00:49.693Z,2.14
2019-02-27T03:01:50.173Z,2.12
2019-02-27T03:02:50.255Z,2.04
2019-02-27T03:03:50.504Z,2.07
2019-02-27T03:04:50.783Z,2.12
2019-02-27T03:05:51.032Z,2.16
2019-02-27T03:06:51.394Z,2.14
2019-02-27T03:07:51.550Z,2.15
2019-02-27T03:08:55.010Z,2.04
2019-02-27T03:09:52.077Z,2.00
2019-02-27T03:10:52.536Z,2.08
2019-02-27T03:11:54.832Z,2.01
2019-02-27T03:12:52.894Z,2.10
2019-02-27T03:13:53.092Z,2.03
2019-02-27T03:14:54.171Z,1.92
2019-02-27T03:15:53.686Z,1.97
2019-02-27T03:16:53.912Z,1.92
2019-02-27T03:17:55.070Z,2.00
2019-02-27T03:18:54.441Z,2.00
2019-02-27T03:19:54.699Z,1.84
2019-02-27T03:20:54.992Z,1.93
2019-02-27T03:21:55.253Z,1.95
2019-02-27T03:22:55.561Z,1.79
2019-02-27T03:23:55.888Z,1.88
2019-02-27T03:24:56.066Z,1.82
2019-02-27T03:25:56.337Z,1.85
2019-02-27T03:26:56.600Z,1.84
2019-02-27T03:27:56.873Z,1.81
2019-02-27T03:28:57.130Z,1.85
2019-02-27T03:29:57.366Z,1.75
2019-02-27T03:30:57.687Z,1.78
2019-02-27T03:32:00.163Z,1.75
2019-02-27T03:32:58.202Z,1.75
2019-02-27T03:34:05.802Z,1.75
2019-02-27T03:34:59.691Z,1.85
2019-02-27T03:35:59.878Z,1.74
2019-02-27T03:36:59.220Z,1.81
2019-02-27T03:37:59.507Z,1.81
2019-02-27T03:39:00.167Z,1.81
2019-02-27T03:40:00.225Z,1.74
2019-02-27T03:41:00.279Z,1.81
2019-02-27T03:42:00.563Z,1.70
2019-02-27T03:43:00.840Z,1.70
2019-02-27T03:44:01.087Z,1.76
2019-02-27T03:45:01.318Z,1.75
2019-02-27T03:46:03.090Z,1.74
2019-02-27T03:47:01.831Z,1.71
2019-02-27T03:48:02.202Z,1.68
2019-02-27T03:49:03.569Z,1.68
2019-02-27T03:50:02.627Z,1.63
2019-02-27T03:51:02.903Z,1.64
2019-02-27T03:52:03.128Z,1.63
2019-02-27T03:53:03.428Z,1.60
2019-02-27T03:54:03.716Z,1.50
2019-02-27T03:55:03.947Z,1.57
2019-02-27T03:56:08.698Z,1.56
2019-02-27T03:57:05.488Z,1.58
2019-02-27T03:58:04.752Z,1.46
2019-02-27T03:59:06.065Z,1.53
2019-02-27T04:00:05.280Z,1.58
2019-02-27T04:01:05.539Z,1.56
2019-02-27T04:02:06.159Z,1.53
2019-02-27T04:03:06.074Z,1.52
2019-02-27T04:04:06.339Z,1.48
2019-02-27T04:05:07.375Z,1.57
2019-02-27T04:06:06.856Z,1.45
2019-02-27T04:07:07.107Z,1.34
2019-02-27T04:08:08.304Z,1.40
2019-02-27T04:09:07.628Z,1.39
2019-02-27T04:10:08.346Z,1.43
2019-02-27T04:11:08.174Z,1.39
2019-02-27T04:12:08.426Z,1.32
2019-02-27T04:13:08.834Z,1.45
2019-02-27T04:14:08.945Z,1.45
2019-02-27T04:15:09.237Z,1.46
2019-02-27T04:16:09.494Z,1.40
2019-02-27T04:17:09.741Z,1.39
2019-02-27T04:18:10.021Z,1.43
2019-02-27T04:19:10.248Z,1.38
2019-02-27T04:20:14.602Z,1.39
2019-02-27T04:21:10.894Z,1.42
2019-02-27T04:22:11.047Z,1.42
2019-02-27T04:23:12.434Z,1.31
2019-02-27T04:24:11.583Z,1.28
2019-02-27T04:25:11.831Z,1.31
2019-02-27T04:26:12.132Z,1.31
2019-02-27T04:27:12.381Z,1.25
2019-02-27T04:28:12.636Z,1.30
2019-02-27T04:29:12.952Z,1.24
2019-02-27T04:30:14.700Z,1.31
2019-02-27T04:31:13.436Z,1.25
2019-02-27T04:32:13.682Z,1.30
2019-02-27T04:33:13.956Z,1.22
2019-02-27T04:34:14.232Z,1.21
2019-02-27T04:35:14.479Z,1.24
2019-02-27T04:36:14.767Z,1.13
2019-02-27T04:37:15.026Z,1.27
2019-02-27T04:38:15.340Z,1.21
2019-02-27T04:39:15.540Z,1.24
2019-02-27T04:40:15.785Z,1.22
2019-02-27T04:41:17.807Z,1.24
2019-02-27T04:42:16.290Z,1.25
2019-02-27T04:43:16.568Z,1.18
2019-02-27T04:44:16.845Z,1.24
2019-02-27T04:45:17.096Z,1.16
2019-02-27T04:46:18.890Z,1.20
2019-02-27T04:47:17.616Z,1.28
2019-02-27T04:48:17.873Z,1.21
2019-02-27T04:49:18.379Z,1.16
2019-02-27T04:50:18.396Z,1.25
2019-02-27T04:51:18.672Z,1.21
2019-02-27T04:52:18.942Z,1.13
2019-02-27T04:53:19.160Z,1.10
2019-02-27T04:54:19.537Z,1.16
2019-02-27T04:55:19.686Z,1.14
2019-02-27T04:56:23.105Z,1.14
2019-02-27T04:57:20.225Z,1.21
2019-02-27T04:58:20.465Z,1.25
2019-02-27T04:59:20.771Z,1.24
2019-02-27T05:00:21.002Z,1.22
2019-02-27T05:01:21.285Z,1.20
2019-02-27T05:02:21.606Z,1.18
2019-02-27T05:03:21.773Z,1.21
2019-02-27T05:04:22.037Z,1.13
2019-02-27T05:05:22.300Z,1.16
2019-02-27T05:06:22.583Z,1.21
2019-02-27T05:07:22.831Z,1.10
2019-02-27T05:08:26.925Z,1.10
2019-02-27T05:09:23.357Z,1.10
2019-02-27T05:10:23.639Z,1.07
2019-02-27T05:11:23.869Z,1.10
2019-02-27T05:12:24.130Z,1.24
2019-02-27T05:13:24.393Z,1.14
2019-02-27T05:14:24.789Z,1.14
2019-02-27T05:15:24.913Z,1.14
2019-02-27T05:16:25.179Z,1.20
2019-02-27T05:17:25.454Z,1.14
2019-02-27T05:18:29.240Z,1.10
2019-02-27T05:19:26.084Z,1.09
2019-02-27T05:20:26.204Z,1.21
2019-02-27T05:21:26.484Z,1.14
2019-02-27T05:22:27.323Z,1.16
2019-02-27T05:23:27.006Z,1.18
2019-02-27T05:24:27.284Z,1.18
2019-02-27T05:25:27.526Z,1.18
2019-02-27T05:26:27.845Z,1.14
2019-02-27T05:27:28.188Z,1.18
2019-02-27T05:28:28.313Z,1.09
2019-02-27T05:29:28.595Z,1.13
2019-02-27T05:30:28.836Z,1.13
2019-02-27T05:31:29.093Z,1.12
2019-02-27T05:32:29.385Z,1.07
2019-02-27T05:33:35.638Z,1.03
2019-02-27T05:34:30.928Z,1.09
2019-02-27T05:35:30.261Z,1.13
2019-02-27T05:36:31.621Z,1.12
2019-02-27T05:37:30.705Z,1.07
2019-02-27T05:38:30.963Z,1.13
2019-02-27T05:39:31.240Z,1.12
2019-02-27T05:40:31.488Z,1.06
2019-02-27T05:41:32.911Z,1.06
2019-02-27T05:42:32.044Z,0.99
2019-02-27T05:43:32.302Z,1.04
2019-02-27T05:44:32.530Z,1.09
2019-02-27T05:45:32.785Z,1.06
2019-02-27T05:46:33.050Z,1.06
2019-02-27T05:47:33.359Z,1.03
2019-02-27T05:48:33.562Z,1.04
2019-02-27T05:49:33.824Z,0.96
2019-02-27T05:50:34.274Z,0.99
2019-02-27T05:51:34.435Z,0.91
2019-02-27T05:52:34.736Z,0.96
2019-02-27T05:53:34.893Z,0.92
2019-02-27T05:54:35.173Z,0.95
2019-02-27T05:55:39.048Z,0.95
2019-02-27T05:56:35.680Z,0.89
2019-02-27T05:57:35.973Z,0.94
2019-02-27T05:58:36.230Z,0.91
2019-02-27T05:59:36.495Z,0.92
2019-02-27T06:00:37.001Z,0.92
2019-02-27T06:01:38.139Z,0.92
2019-02-27T06:02:37.270Z,0.91
2019-02-27T06:03:37.491Z,0.91
2019-02-27T06:04:37.769Z,0.95
2019-02-27T06:05:38.010Z,0.92
2019-02-27T06:06:38.260Z,0.95
2019-02-27T06:07:38.549Z,0.91
2019-02-27T06:08:38.869Z,0.95
2019-02-27T06:09:41.368Z,0.94
2019-02-27T06:10:39.293Z,0.89
2019-02-27T06:11:39.575Z,0.95
2019-02-27T06:12:40.715Z,0.92
2019-02-27T06:13:40.121Z,0.99
2019-02-27T06:14:40.388Z,0.95
2019-02-27T06:15:40.629Z,0.91
2019-02-27T06:16:41.037Z,0.96
2019-02-27T06:17:43.354Z,0.91
2019-02-27T06:18:41.410Z,0.99
2019-02-27T06:19:41.677Z,1.00
2019-02-27T06:20:42.547Z,0.89
2019-02-27T06:21:42.180Z,0.99
2019-02-27T06:22:42.457Z,0.95
2019-02-27T06:23:42.696Z,0.96
2019-02-27T06:24:45.507Z,0.95
2019-02-27T06:25:43.208Z,0.92
2019-02-27T06:26:43.473Z,0.95
2019-02-27T06:27:43.748Z,0.99
2019-02-27T06:28:43.992Z,0.96
2019-02-27T06:29:44.260Z,0.96
2019-02-27T06:30:44.517Z,0.91
2019-02-27T06:31:44.774Z,1.00
2019-02-27T06:32:45.111Z,0.94
2019-02-27T06:33:45.855Z,0.99
2019-02-27T06:34:45.567Z,1.02
2019-02-27T06:35:45.820Z,1.09
2019-02-27T06:36:46.082Z,1.06
2019-02-27T06:37:50.325Z,1.06
2019-02-27T06:38:46.625Z,1.06
2019-02-27T06:39:46.877Z,1.09
2019-02-27T06:40:47.124Z,1.12
2019-02-27T06:41:49.712Z,1.02
2019-02-27T06:42:47.666Z,1.14
2019-02-27T06:43:47.915Z,1.13
2019-02-27T06:44:48.151Z,1.20
2019-02-27T06:45:48.445Z,1.21
2019-02-27T06:46:51.132Z,1.21
2019-02-27T06:47:48.987Z,1.22
2019-02-27T06:48:49.242Z,1.24
2019-02-27T06:49:51.833Z,1.38
2019-02-27T06:50:49.770Z,1.42
2019-02-27T06:51:50.026Z,1.42
2019-02-27T06:52:50.311Z,1.45
2019-02-27T06:53:50.562Z,1.45
2019-02-27T06:54:52.290Z,1.46
2019-02-27T06:55:51.076Z,1.53
2019-02-27T06:56:51.337Z,1.50
2019-02-27T06:57:51.726Z,1.58
2019-02-27T06:58:55.201Z,1.60
2019-02-27T06:59:52.061Z,1.71
2019-02-27T07:00:52.315Z,1.71
2019-02-27T07:01:52.570Z,1.75
2019-02-27T07:02:55.268Z,1.85
2019-02-27T07:03:53.105Z,1.92
2019-02-27T07:04:53.338Z,1.97
2019-02-27T07:05:53.873Z,2.08
2019-02-27T07:06:55.352Z,2.03
2019-02-27T07:07:54.177Z,2.07
2019-02-27T07:08:54.435Z,2.16
2019-02-27T07:09:54.683Z,2.18
2019-02-27T07:10:57.497Z,2.12
2019-02-27T07:11:55.200Z,2.21
2019-02-27T07:12:55.495Z,2.25
2019-02-27T07:13:55.791Z,2.23
2019-02-27T07:14:56.040Z,2.25
2019-02-27T07:15:56.274Z,2.28
2019-02-27T07:16:57.357Z,2.32
2019-02-27T07:17:56.830Z,2.34
2019-02-27T07:18:57.079Z,2.34
2019-02-27T07:19:57.320Z,2.44
2019-02-27T07:20:58.315Z,2.51
2019-02-27T07:21:57.848Z,2.46
2019-02-27T07:22:58.208Z,2.50
2019-02-27T07:23:58.656Z,2.64
2019-02-27T07:24:58.625Z,2.65
2019-02-27T07:25:58.907Z,2.70
2019-02-27T07:26:59.137Z,2.70
2019-02-27T07:27:59.402Z,2.65
2019-02-27T07:28:59.681Z,2.68
2019-02-27T07:29:59.946Z,2.85
2019-02-27T07:31:00.334Z,2.82
2019-02-27T07:32:00.454Z,2.80
2019-02-27T07:33:00.711Z,2.80
2019-02-27T07:34:00.993Z,2.79
2019-02-27T07:35:01.255Z,2.95
2019-02-27T07:36:03.569Z,2.87
2019-02-27T07:37:01.773Z,2.93
2019-02-27T07:38:02.051Z,3.00
2019-02-27T07:39:02.339Z,3.05
2019-02-27T07:40:02.539Z,3.12
2019-02-27T07:41:02.821Z,3.13
2019-02-27T07:42:03.063Z,3.21
2019-02-27T07:43:05.706Z,3.26
2019-02-27T07:44:03.603Z,3.31
2019-02-27T07:45:03.841Z,3.24
2019-02-27T07:46:04.123Z,3.37
2019-02-27T07:47:04.440Z,3.33
2019-02-27T07:48:04.618Z,3.46
2019-02-27T07:49:04.902Z,3.50
2019-02-27T07:50:06.197Z,3.49
2019-02-27T07:51:05.420Z,3.53
2019-02-27T07:52:05.676Z,3.52
2019-02-27T07:53:05.939Z,3.61
2019-02-27T07:54:06.245Z,3.67
2019-02-27T07:55:18.638Z,3.74
2019-02-27T07:56:07.798Z,3.74
2019-02-27T07:57:07.000Z,3.81
2019-02-27T07:58:07.259Z,3.86
2019-02-27T07:59:07.552Z,3.88
2019-02-27T08:00:07.770Z,3.86
2019-02-27T08:01:08.057Z,3.92
2019-02-27T08:02:08.283Z,4.02
2019-02-27T08:03:09.436Z,4.12
2019-02-27T08:04:08.992Z,4.04
2019-02-27T08:05:09.085Z,4.07
2019-02-27T08:06:09.590Z,4.09
2019-02-27T08:07:10.046Z,4.13
2019-02-27T08:08:09.861Z,4.12
2019-02-27T08:09:10.143Z,4.14
2019-02-27T08:10:10.595Z,4.20
2019-02-27T08:11:13.414Z,4.32
2019-02-27T08:12:10.988Z,4.32
2019-02-27T08:13:11.157Z,4.38
2019-02-27T08:14:12.896Z,4.40
2019-02-27T08:15:13.455Z,4.46
2019-02-27T08:16:11.960Z,4.56
2019-02-27T08:17:17.672Z,4.60
2019-02-27T08:18:13.525Z,4.63
2019-02-27T08:19:12.737Z,4.68
2019-02-27T08:20:13.046Z,4.70
2019-02-27T08:21:13.279Z,4.78
2019-02-27T08:22:13.513Z,4.79
2019-02-27T08:23:15.474Z,4.89
2019-02-27T08:24:14.445Z,4.89
2019-02-27T08:25:14.289Z,4.98
2019-02-27T08:26:14.580Z,5.00
2019-02-27T08:27:14.823Z,4.92
2019-02-27T08:28:15.146Z,5.10
2019-02-27T08:29:15.364Z,5.15
2019-02-27T08:30:15.600Z,5.20
2019-02-27T08:31:15.879Z,5.22
2019-02-27T08:32:16.128Z,5.29
2019-02-27T08:33:16.395Z,5.44
2019-02-27T08:34:16.673Z,5.41
2019-02-27T08:35:16.931Z,5.52
2019-02-27T08:36:17.208Z,5.54
2019-02-27T08:37:17.536Z,5.61
2019-02-27T08:38:17.697Z,5.69
2019-02-27T08:39:17.991Z,5.74
2019-02-27T08:40:18.226Z,5.80
2019-02-27T08:41:18.481Z,5.92
2019-02-27T08:42:18.738Z,5.88
2019-02-27T08:43:19.000Z,5.95
2019-02-27T08:44:19.284Z,5.97
2019-02-27T08:45:20.490Z,5.98
2019-02-27T08:46:19.786Z,6.02
2019-02-27T08:47:20.043Z,6.05
2019-02-27T08:48:20.304Z,6.12
2019-02-27T08:49:24.024Z,6.20
2019-02-27T08:50:20.837Z,6.29
2019-02-27T08:51:21.095Z,6.46
2019-02-27T08:52:21.327Z,6.43
2019-02-27T08:53:25.838Z,6.50
2019-02-27T08:54:22.875Z,6.53
2019-02-27T08:55:22.638Z,6.57
2019-02-27T08:56:22.383Z,6.68
2019-02-27T08:57:22.635Z,6.74
2019-02-27T08:58:22.919Z,6.71
2019-02-27T08:59:23.196Z,6.75
2019-02-27T09:00:23.520Z,6.82
2019-02-27T09:01:23.752Z,6.92
2019-02-27T09:02:24.159Z,6.92
2019-02-27T09:03:24.214Z,7.00
2019-02-27T09:04:24.504Z,7.05
2019-02-27T09:05:24.771Z,7.11
2019-02-27T09:06:27.340Z,7.13
2019-02-27T09:07:25.281Z,7.15
2019-02-27T09:08:25.529Z,7.36
2019-02-27T09:09:25.823Z,7.32
2019-02-27T09:10:26.855Z,7.43
2019-02-27T09:11:26.312Z,7.43
2019-02-27T09:12:26.593Z,7.47
2019-02-27T09:13:26.832Z,7.53
2019-02-27T09:14:27.110Z,7.55
2019-02-27T09:15:27.341Z,7.64
2019-02-27T09:16:27.623Z,7.72
2019-02-27T09:17:27.949Z,7.83
2019-02-27T09:18:28.253Z,7.85
2019-02-27T09:19:28.400Z,7.90
2019-02-27T09:20:28.656Z,8.01
2019-02-27T09:21:28.950Z,8.17
2019-02-27T09:22:29.216Z,8.18
2019-02-27T09:23:29.455Z,8.17
2019-02-27T09:24:29.733Z,8.27
2019-02-27T09:25:29.985Z,8.31
2019-02-27T09:26:30.306Z,8.36
2019-02-27T09:27:33.024Z,8.34
2019-02-27T09:28:30.758Z,8.44
2019-02-27T09:29:31.037Z,8.52
2019-02-27T09:30:31.266Z,8.52
2019-02-27T09:31:31.541Z,8.56
2019-02-27T09:32:31.817Z,8.66
2019-02-27T09:33:38.581Z,8.72
2019-02-27T09:34:33.450Z,8.72
2019-02-27T09:35:34.501Z,8.84
2019-02-27T09:36:33.850Z,8.89
2019-02-27T09:37:33.125Z,9.05
2019-02-27T09:38:33.365Z,9.13
2019-02-27T09:39:35.038Z,9.27
2019-02-27T09:40:38.152Z,9.36
2019-02-27T09:41:34.140Z,9.40
2019-02-27T09:42:34.445Z,9.49
2019-02-27T09:43:34.667Z,9.64
2019-02-27T09:44:36.544Z,9.67
2019-02-27T09:45:35.370Z,9.77
2019-02-27T09:46:35.443Z,9.81
2019-02-27T09:47:35.695Z,9.84
2019-02-27T09:48:35.951Z,9.94
2019-02-27T09:49:37.907Z,10.12
2019-02-27T09:50:36.524Z,10.17
2019-02-27T09:51:36.792Z,10.10
2019-02-27T09:52:37.013Z,10.24
2019-02-27T09:53:37.471Z,10.34
2019-02-27T09:54:37.538Z,10.24
2019-02-27T09:55:37.786Z,10.33
2019-02-27T09:56:38.052Z,10.46
2019-02-27T09:57:38.316Z,10.43
2019-02-27T09:58:38.576Z,10.46
2019-02-27T09:59:39.987Z,10.61
2019-02-27T10:00:39.110Z,10.51
2019-02-27T10:01:39.365Z,10.75
2019-02-27T10:02:39.645Z,10.77
2019-02-27T10:03:39.883Z,10.80
2019-02-27T10:04:40.177Z,10.76
2019-02-27T10:05:40.885Z,10.86
2019-02-27T10:06:42.749Z,11.07
2019-02-27T10:07:41.075Z,11.02
2019-02-27T10:08:41.185Z,11.10
2019-02-27T10:09:41.458Z,11.15
2019-02-27T10:10:44.853Z,11.13
2019-02-27T10:11:42.046Z,11.18
2019-02-27T10:12:42.372Z,11.26
2019-02-27T10:13:42.507Z,11.26
2019-02-27T10:14:42.754Z,11.27
2019-02-27T10:15:43.096Z,11.37
2019-02-27T10:16:43.301Z,11.41
2019-02-27T10:17:43.781Z,11.40
2019-02-27T10:18:43.816Z,11.43
2019-02-27T10:19:44.075Z,11.40
2019-02-27T10:20:44.357Z,11.44
2019-02-27T10:21:45.288Z,11.51
2019-02-27T10:22:44.890Z,11.52
2019-02-27T10:23:45.193Z,11.63
2019-02-27T10:24:45.375Z,11.67
2019-02-27T10:25:45.678Z,11.74
2019-02-27T10:26:45.885Z,11.65
2019-02-27T10:27:47.271Z,11.74
2019-02-27T10:28:46.440Z,11.74
2019-02-27T10:29:47.960Z,11.81
2019-02-27T10:30:49.858Z,11.91
2019-02-27T10:31:47.273Z,11.97
2019-02-27T10:32:47.540Z,11.93
2019-02-27T10:33:47.714Z,11.86
2019-02-27T10:34:51.039Z,12.00
2019-02-27T10:35:49.273Z,12.03
2019-02-27T10:36:48.633Z,12.10
2019-02-27T10:37:50.433Z,12.10
2019-02-27T10:38:49.033Z,12.17
2019-02-27T10:39:49.325Z,12.29
2019-02-27T10:40:49.712Z,12.35
2019-02-27T10:41:50.602Z,12.30
2019-02-27T10:42:50.273Z,12.48
2019-02-27T10:43:50.354Z,12.47
2019-02-27T10:44:50.608Z,12.50
2019-02-27T10:45:50.913Z,12.55
2019-02-27T10:46:52.053Z,12.57
2019-02-27T10:47:51.412Z,12.66
2019-02-27T10:48:51.777Z,12.62
2019-02-27T10:49:51.911Z,12.78
2019-02-27T10:50:52.202Z,12.76
2019-02-27T10:51:52.431Z,12.75
2019-02-27T10:52:52.711Z,12.76
2019-02-27T10:53:52.937Z,12.76
2019-02-27T10:54:53.219Z,12.84
2019-02-27T10:55:53.510Z,12.87
2019-02-27T10:56:56.391Z,12.87
2019-02-27T10:57:53.994Z,12.81
2019-02-27T10:58:54.244Z,12.88
2019-02-27T10:59:54.493Z,12.98
2019-02-27T11:00:54.802Z,13.01
2019-02-27T11:01:55.028Z,12.95
2019-02-27T11:02:55.286Z,12.94
2019-02-27T11:03:55.547Z,13.06
2019-02-27T11:04:55.855Z,13.11
2019-02-27T11:05:56.055Z,13.06
2019-02-27T11:06:56.315Z,13.11
2019-02-27T11:07:56.584Z,13.19
2019-02-27T11:08:56.871Z,13.13
2019-02-27T11:09:57.118Z,13.23
2019-02-27T11:10:57.405Z,13.31
2019-02-27T11:11:57.634Z,13.37
2019-02-27T11:12:57.944Z,13.33
2019-02-27T11:13:58.262Z,13.39
2019-02-27T11:14:58.428Z,13.45
2019-02-27T11:15:58.690Z,13.49
2019-02-27T11:17:02.165Z,13.46
2019-02-27T11:18:04.199Z,13.45
2019-02-27T11:19:00.497Z,13.30
2019-02-27T11:19:59.738Z,13.39
2019-02-27T11:21:00.048Z,13.31
2019-02-27T11:22:00.389Z,13.45
2019-02-27T11:23:00.519Z,13.33
2019-02-27T11:24:01.018Z,13.31
2019-02-27T11:25:01.029Z,13.49
2019-02-27T11:26:01.327Z,13.50
2019-02-27T11:27:03.373Z,13.55
2019-02-27T11:28:01.828Z,13.58
2019-02-27T11:29:02.114Z,13.61
2019-02-27T11:30:03.012Z,13.60
2019-02-27T11:31:02.608Z,13.61
2019-02-27T11:32:02.862Z,13.64
2019-02-27T11:33:03.116Z,13.61
2019-02-27T11:34:05.124Z,13.67
2019-02-27T11:35:03.641Z,13.68
2019-02-27T11:36:05.598Z,13.71
2019-02-27T11:37:04.295Z,13.80
2019-02-27T11:38:04.446Z,13.75
2019-02-27T11:39:04.755Z,13.83
2019-02-27T11:40:05.375Z,13.86
2019-02-27T11:41:05.219Z,13.83
2019-02-27T11:42:05.461Z,13.97
2019-02-27T11:43:06.993Z,13.95
2019-02-27T11:44:05.996Z,13.94
2019-02-27T11:45:06.221Z,13.97
2019-02-27T11:46:06.570Z,14.00
2019-02-27T11:47:10.829Z,14.04
2019-02-27T11:48:07.056Z,14.05
2019-02-27T11:49:07.318Z,14.03
2019-02-27T11:50:07.547Z,14.08
2019-02-27T11:51:07.844Z,14.07
2019-02-27T11:52:08.083Z,14.13
2019-02-27T11:53:08.344Z,14.18
2019-02-27T11:54:09.173Z,14.18
2019-02-27T11:55:08.986Z,14.30
2019-02-27T11:56:09.156Z,14.22
2019-02-27T11:57:09.408Z,14.30
2019-02-27T11:58:09.673Z,14.31
2019-02-27T11:59:10.263Z,14.38
2019-02-27T12:00:10.185Z,14.36
2019-02-27T12:01:12.040Z,14.40
2019-02-27T12:02:10.696Z,14.37
2019-02-27T12:03:11.933Z,14.41
2019-02-27T12:04:11.239Z,14.44
2019-02-27T12:05:11.483Z,14.56
2019-02-27T12:06:11.747Z,14.53
2019-02-27T12:07:12.246Z,14.56
2019-02-27T12:08:12.276Z,14.58
2019-02-27T12:09:12.555Z,14.61
2019-02-27T12:10:12.801Z,14.68
2019-02-27T12:11:14.089Z,14.66
2019-02-27T12:12:13.299Z,14.52
2019-02-27T12:13:13.591Z,14.58
2019-02-27T12:14:13.865Z,14.56
2019-02-27T12:15:14.114Z,14.70
2019-02-27T12:16:15.248Z,14.70
2019-02-27T12:17:14.644Z,14.79
2019-02-27T12:18:14.895Z,14.82
2019-02-27T12:19:15.242Z,14.74
2019-02-27T12:20:18.049Z,14.77
2019-02-27T12:21:15.706Z,14.85
2019-02-27T12:22:15.962Z,14.81
2019-02-27T12:23:16.207Z,14.89
2019-02-27T12:24:18.941Z,14.92
2019-02-27T12:25:16.727Z,14.97
2019-02-27T12:26:17.008Z,15.00
2019-02-27T12:27:24.483Z,15.00
2019-02-27T12:28:18.548Z,14.99
2019-02-27T12:29:17.784Z,14.96
2019-02-27T12:30:18.026Z,14.99
2019-02-27T12:31:18.313Z,15.02
2019-02-27T12:32:19.420Z,15.08
2019-02-27T12:33:18.825Z,15.04
2019-02-27T12:34:19.112Z,15.18
2019-02-27T12:35:19.383Z,15.19
2019-02-27T12:36:19.701Z,15.07
2019-02-27T12:37:27.788Z,15.17
2019-02-27T12:38:21.129Z,15.14
2019-02-27T12:39:20.424Z,15.18
2019-02-27T12:40:24.035Z,15.19
2019-02-27T12:41:20.898Z,15.23
2019-02-27T12:42:21.206Z,15.26
2019-02-27T12:43:21.429Z,15.18
2019-02-27T12:44:21.824Z,15.25
2019-02-27T12:45:22.032Z,15.18
2019-02-27T12:46:22.268Z,15.17
2019-02-27T12:47:22.530Z,15.18
2019-02-27T12:48:22.751Z,15.19
2019-02-27T12:49:23.047Z,15.30
2019-02-27T12:50:23.288Z,15.26
2019-02-27T12:51:23.529Z,15.33
2019-02-27T12:52:23.871Z,15.35
2019-02-27T12:53:24.063Z,15.29
2019-02-27T12:54:26.757Z,15.44
2019-02-27T12:55:24.593Z,15.39
2019-02-27T12:56:24.851Z,15.33
2019-02-27T12:57:25.115Z,15.41
2019-02-27T12:58:25.377Z,15.48
2019-02-27T12:59:25.667Z,15.47
2019-02-27T13:00:25.955Z,15.52
2019-02-27T13:01:26.143Z,15.50
2019-02-27T13:02:35.249Z,15.52
2019-02-27T13:03:27.651Z,15.54
2019-02-27T13:04:26.957Z,15.55
2019-02-27T13:05:27.474Z,15.55
2019-02-27T13:06:27.476Z,15.54
2019-02-27T13:07:27.809Z,15.48
2019-02-27T13:08:28.065Z,15.52
2019-02-27T13:09:28.285Z,15.52
2019-02-27T13:10:30.406Z,15.47
2019-02-27T13:11:28.801Z,15.50
2019-02-27T13:12:29.072Z,15.45
2019-02-27T13:13:29.303Z,15.52
2019-02-27T13:14:33.000Z,15.60